Time;durP1;ratioP1;P1;durP2;ratioP2;P2;SDS_P1;SDS_P2;PMS_P1;PMS_P2;Temp;Humidity;BMP_temperature;BMP_pressure;BME280_temperature;BME280_humidity;BME280_pressure;Samples;Min_cycle;Max_cycle;Signal;HPM_P1;HPM_P2
2023/10/26 00:00:59;;;;;;;2.33;0.93;;;;;;;;;;5958075;29;20441;-81
2023/10/26 00:04:00;;;;;;;1.05;0.80;;;;;;;;;;5956466;29;20499;-84
2023/10/26 00:07:04;;;;;;;0.90;0.70;;;;;;;;;;5936561;29;20861;-85
2023/10/26 00:10:06;;;;;;;0.95;0.70;;;;;;;;;;5952445;29;20089;-84
2023/10/26 00:13:08;;;;;;;1.13;0.57;;;;;;;;;;5951150;29;20058;-85
2023/10/26 00:16:12;;;;;;;0.88;0.68;;;;;;;;;;5938364;29;20069;-85
2023/10/26 00:19:14;;;;;;;0.82;0.60;;;;;;;;;;5953548;29;20433;-85
2023/10/26 00:22:15;;;;;;;2.70;0.80;;;;;;;;;;5953123;29;20058;-83
2023/10/26 00:25:17;;;;;;;2.10;0.85;;;;;;;;;;5959662;29;20157;-84
2023/10/26 00:28:19;;;;;;;0.68;0.63;;;;;;;;;;5969334;29;20051;-84
2023/10/26 00:31:21;;;;;;;3.88;1.10;;;;;;;;;;5959053;29;20054;-82
2023/10/26 00:34:22;;;;;;;1.73;0.93;;;;;;;;;;5956604;29;20570;-84
2023/10/26 00:37:24;;;;;;;1.45;1.00;;;;;;;;;;5956054;29;20106;-84
2023/10/26 00:40:26;;;;;;;1.52;1.20;;;;;;;;;;5951210;29;20062;-83
2023/10/26 00:43:27;;;;;;;1.73;0.98;;;;;;;;;;5958558;29;20082;-83
2023/10/26 00:46:29;;;;;;;1.70;1.38;;;;;;;;;;5958458;29;20055;-83
2023/10/26 00:49:33;;;;;;;2.10;1.30;;;;;;;;;;5974243;29;20063;-82
2023/10/26 00:52:36;;;;;;;1.80;1.40;;;;;;;;;;5953453;29;20055;-82
2023/10/26 00:55:39;;;;;;;1.38;0.98;;;;;;;;;;5956949;29;20062;-85
2023/10/26 00:58:41;;;;;;;0.93;0.77;;;;;;;;;;5950387;29;20059;-83
2023/10/26 01:01:45;;;;;;;1.88;0.93;;;;;;;;;;5954061;29;20127;-84
2023/10/26 01:04:47;;;;;;;1.67;0.95;;;;;;;;;;5956943;29;20055;-85
2023/10/26 01:07:49;;;;;;;1.23;0.68;;;;;;;;;;5956388;29;20049;-83
2023/10/26 01:10:51;;;;;;;1.00;0.75;;;;;;;;;;5951983;29;20075;-81
2023/10/26 01:13:52;;;;;;;0.82;0.63;;;;;;;;;;5955558;29;20055;-84
2023/10/26 01:16:55;;;;;;;0.55;0.55;;;;;;;;;;5950153;29;20061;-82
2023/10/26 01:19:58;;;;;;;1.00;0.52;;;;;;;;;;5959521;29;20131;-84
2023/10/26 01:23:00;;;;;;;3.17;0.85;;;;;;;;;;5953830;29;20059;-84
2023/10/26 01:26:02;;;;;;;0.77;0.60;;;;;;;;;;5959003;29;20125;-83
2023/10/26 01:29:04;;;;;;;0.88;0.50;;;;;;;;;;5952785;29;20062;-83
2023/10/26 01:32:06;;;;;;;0.90;0.60;;;;;;;;;;5950879;29;20055;-82
2023/10/26 01:35:08;;;;;;;1.02;0.68;;;;;;;;;;5956376;29;20434;-82
2023/10/26 01:38:10;;;;;;;1.45;0.77;;;;;;;;;;5954233;29;20054;-84
2023/10/26 01:41:11;;;;;;;0.70;0.50;;;;;;;;;;5941167;29;20061;-83
2023/10/26 01:44:13;;;;;;;1.33;0.60;;;;;;;;;;5941171;29;20127;-84
2023/10/26 01:47:17;;;;;;;2.58;0.60;;;;;;;;;;5940793;29;20499;-84
2023/10/26 01:50:18;;;;;;;0.70;0.52;;;;;;;;;;5966812;29;20130;-84
2023/10/26 01:53:23;;;;;;;0.40;0.40;;;;;;;;;;5940722;29;20087;-84
2023/10/26 01:56:25;;;;;;;0.52;0.40;;;;;;;;;;5955879;29;20477;-84
2023/10/26 01:59:27;;;;;;;0.40;0.30;;;;;;;;;;5950049;29;20055;-82
2023/10/26 02:02:28;;;;;;;0.73;0.40;;;;;;;;;;5942489;29;20050;-81
2023/10/26 02:05:30;;;;;;;0.20;0.20;;;;;;;;;;5945442;29;20057;-84
2023/10/26 02:08:33;;;;;;;0.93;0.20;;;;;;;;;;5940740;29;20097;-85
2023/10/26 02:11:34;;;;;;;0.30;0.30;;;;;;;;;;5949545;29;20074;-84
2023/10/26 02:14:36;;;;;;;1.17;0.35;;;;;;;;;;5965056;29;20111;-82
2023/10/26 02:17:38;;;;;;;1.10;0.20;;;;;;;;;;5957438;29;20066;-83
2023/10/26 02:20:40;;;;;;;0.30;0.30;;;;;;;;;;5950370;29;20139;-83
2023/10/26 02:23:44;;;;;;;0.85;0.38;;;;;;;;;;5948720;29;20051;-83
2023/10/26 02:26:45;;;;;;;0.47;0.40;;;;;;;;;;5950239;29;20434;-83
2023/10/26 02:29:47;;;;;;;0.82;0.32;;;;;;;;;;5949577;29;20130;-83
2023/10/26 02:32:50;;;;;;;1.37;0.40;;;;;;;;;;5948548;29;20055;-83
2023/10/26 02:35:52;;;;;;;0.43;0.43;;;;;;;;;;5949650;29;20472;-82
2023/10/26 02:38:53;;;;;;;0.57;0.57;;;;;;;;;;5955693;29;20526;-81
2023/10/26 02:41:55;;;;;;;1.23;0.68;;;;;;;;;;5951169;29;20505;-83
2023/10/26 02:44:58;;;;;;;0.93;0.60;;;;;;;;;;5938878;29;20046;-82
2023/10/26 02:48:00;;;;;;;0.50;0.50;;;;;;;;;;5961005;29;20055;-84
2023/10/26 02:51:03;;;;;;;0.50;0.50;;;;;;;;;;5954185;29;20054;-85
2023/10/26 02:54:05;;;;;;;0.80;0.70;;;;;;;;;;5966187;29;20051;-82
2023/10/26 02:57:06;;;;;;;0.75;0.60;;;;;;;;;;5950385;29;20085;-84
2023/10/26 03:00:09;;;;;;;1.80;0.80;;;;;;;;;;5949202;29;20055;-84
2023/10/26 03:03:11;;;;;;;1.00;0.70;;;;;;;;;;5938019;29;20054;-84
2023/10/26 03:06:13;;;;;;;1.08;0.70;;;;;;;;;;5952254;29;20133;-83
2023/10/26 03:09:14;;;;;;;1.15;0.80;;;;;;;;;;5940875;29;20130;-84
2023/10/26 03:12:18;;;;;;;1.05;0.80;;;;;;;;;;5954350;29;20062;-84
2023/10/26 03:15:20;;;;;;;1.70;1.05;;;;;;;;;;5948897;29;20493;-82
2023/10/26 03:18:22;;;;;;;1.63;0.90;;;;;;;;;;5950618;29;20072;-83
2023/10/26 03:21:24;;;;;;;1.88;1.15;;;;;;;;;;5936762;29;20039;-84
2023/10/26 03:24:26;;;;;;;4.30;1.55;;;;;;;;;;5947138;29;20069;-82
2023/10/26 03:27:28;;;;;;;3.00;1.35;;;;;;;;;;5954584;29;20054;-85
2023/10/26 03:30:29;;;;;;;2.42;1.65;;;;;;;;;;5955883;29;20059;-83
2023/10/26 03:33:32;;;;;;;2.58;1.60;;;;;;;;;;5950569;29;20127;-83
2023/10/26 03:36:34;;;;;;;2.42;1.70;;;;;;;;;;5960921;29;20070;-84
2023/10/26 03:39:38;;;;;;;2.83;1.50;;;;;;;;;;5952794;29;20150;-84
2023/10/26 03:42:40;;;;;;;2.00;1.25;;;;;;;;;;5950274;29;20510;-84
2023/10/26 03:45:45;;;;;;;2.85;1.88;;;;;;;;;;5952288;29;20084;-84
2023/10/26 03:48:46;;;;;;;4.07;2.25;;;;;;;;;;5952397;29;20050;-85
2023/10/26 03:51:48;;;;;;;4.38;2.60;;;;;;;;;;5953329;29;21578;-83
2023/10/26 03:54:50;;;;;;;4.63;2.90;;;;;;;;;;5954195;29;20062;-83
2023/10/26 03:57:52;;;;;;;4.70;2.90;;;;;;;;;;5952807;29;20059;-82
2023/10/26 04:00:53;;;;;;;4.03;2.90;;;;;;;;;;5950625;29;20055;-85
2023/10/26 04:03:55;;;;;;;4.50;2.78;;;;;;;;;;5951308;29;20047;-84
2023/10/26 04:06:57;;;;;;;6.03;3.00;;;;;;;;;;5937152;29;20062;-85
2023/10/26 04:09:59;;;;;;;4.82;3.00;;;;;;;;;;5963348;29;20050;-82
2023/10/26 04:13:01;;;;;;;5.53;3.13;;;;;;;;;;5951142;29;20388;-82
2023/10/26 04:16:03;;;;;;;4.82;2.95;;;;;;;;;;5962130;29;20055;-84
2023/10/26 04:19:05;;;;;;;4.78;2.33;;;;;;;;;;5939110;29;20287;-83
2023/10/26 04:22:07;;;;;;;3.47;2.35;;;;;;;;;;5950843;29;20078;-83
2023/10/26 04:25:09;;;;;;;4.85;2.47;;;;;;;;;;5942077;29;20046;-84
2023/10/26 04:28:10;;;;;;;4.35;2.60;;;;;;;;;;5952669;29;20519;-83
2023/10/26 04:31:12;;;;;;;3.60;2.40;;;;;;;;;;5938212;29;20085;-84
2023/10/26 04:34:15;;;;;;;5.10;3.13;;;;;;;;;;5948357;29;20180;-83
2023/10/26 04:37:16;;;;;;;3.72;2.20;;;;;;;;;;5951622;29;20047;-83
2023/10/26 04:40:18;;;;;;;5.55;2.92;;;;;;;;;;5948473;29;20058;-83
2023/10/26 04:43:20;;;;;;;5.85;3.17;;;;;;;;;;5954225;29;20061;-82
2023/10/26 04:46:21;;;;;;;5.22;3.20;;;;;;;;;;5948501;29;20581;-84
2023/10/26 04:49:23;;;;;;;7.13;3.40;;;;;;;;;;5949939;29;20526;-83
2023/10/26 04:52:25;;;;;;;7.43;4.38;;;;;;;;;;5948566;29;20506;-83
2023/10/26 04:55:30;;;;;;;7.80;4.43;;;;;;;;;;5951981;29;20051;-82
2023/10/26 04:58:32;;;;;;;8.32;4.57;;;;;;;;;;5960974;29;20050;-83
2023/10/26 05:01:33;;;;;;;9.32;4.97;;;;;;;;;;5945015;29;20058;-83
2023/10/26 05:04:36;;;;;;;8.73;5.18;;;;;;;;;;5949260;29;20172;-82
2023/10/26 05:07:37;;;;;;;6.15;3.97;;;;;;;;;;5947750;29;20058;-82
2023/10/26 05:10:41;;;;;;;6.88;4.10;;;;;;;;;;5951262;29;20078;-82
2023/10/26 05:13:43;;;;;;;8.23;3.67;;;;;;;;;;5938758;29;20061;-83
2023/10/26 05:16:44;;;;;;;7.82;3.65;;;;;;;;;;5950824;29;20506;-83
2023/10/26 05:19:46;;;;;;;6.57;3.72;;;;;;;;;;5934161;29;20502;-82
2023/10/26 05:22:48;;;;;;;7.30;4.30;;;;;;;;;;5944893;29;20051;-83
2023/10/26 05:25:49;;;;;;;7.43;3.55;;;;;;;;;;5950949;29;20122;-83
2023/10/26 05:28:51;;;;;;;8.77;3.75;;;;;;;;;;5952678;29;20705;-84
2023/10/26 05:31:53;;;;;;;5.90;3.55;;;;;;;;;;5952699;29;20126;-82
2023/10/26 05:34:55;;;;;;;8.18;4.25;;;;;;;;;;5963704;29;20547;-83
2023/10/26 05:37:56;;;;;;;7.38;3.55;;;;;;;;;;5950754;29;20055;-82
2023/10/26 05:40:58;;;;;;;6.15;3.58;;;;;;;;;;5950034;29;20051;-83
2023/10/26 05:44:00;;;;;;;6.90;3.75;;;;;;;;;;5964533;29;20047;-84
2023/10/26 05:47:01;;;;;;;5.32;3.20;;;;;;;;;;5962252;29;20054;-83
2023/10/26 05:50:04;;;;;;;6.55;3.10;;;;;;;;;;5950898;29;20047;-82
2023/10/26 05:53:06;;;;;;;7.03;3.58;;;;;;;;;;5940958;29;20050;-83
2023/10/26 05:56:08;;;;;;;6.82;4.28;;;;;;;;;;5949259;29;20051;-83
2023/10/26 05:59:10;;;;;;;7.23;4.00;;;;;;;;;;5936082;29;20076;-82
2023/10/26 06:02:12;;;;;;;7.40;3.75;;;;;;;;;;5949262;29;20416;-84
2023/10/26 06:05:14;;;;;;;7.65;3.78;;;;;;;;;;5955854;29;20051;-83
2023/10/26 06:08:16;;;;;;;7.53;4.10;;;;;;;;;;5938779;29;20127;-82
2023/10/26 06:11:18;;;;;;;5.88;4.03;;;;;;;;;;5952875;29;20047;-81
2023/10/26 06:14:20;;;;;;;5.37;2.87;;;;;;;;;;5952368;29;20046;-83
2023/10/26 06:17:23;;;;;;;4.13;2.75;;;;;;;;;;5944220;29;20739;-85
2023/10/26 06:20:27;;;;;;;4.90;2.65;;;;;;;;;;5947582;29;20050;-85
2023/10/26 06:23:29;;;;;;;6.80;3.42;;;;;;;;;;5949644;29;20109;-85
2023/10/26 06:26:31;;;;;;;5.88;3.05;;;;;;;;;;5938338;29;20138;-84
2023/10/26 06:29:33;;;;;;;5.05;3.22;;;;;;;;;;5951900;29;20051;-84
2023/10/26 06:32:35;;;;;;;5.53;3.38;;;;;;;;;;5951078;29;20066;-83
2023/10/26 06:35:37;;;;;;;8.90;3.03;;;;;;;;;;5955146;29;20048;-84
2023/10/26 06:38:39;;;;;;;9.18;4.05;;;;;;;;;;5954086;29;20055;-84
2023/10/26 06:41:41;;;;;;;7.47;4.07;;;;;;;;;;5950521;29;20123;-84
2023/10/26 06:44:49;;;;;;;7.28;3.72;;;;;;;;;;5949533;29;20118;-82
2023/10/26 06:47:51;;;;;;;8.45;4.53;;;;;;;;;;5965520;29;20054;-82
2023/10/26 06:51:03;;;;;;;8.88;4.30;;;;;;;;;;5937772;29;20143;-84
2023/10/26 06:54:05;;;;;;;8.45;4.63;;;;;;;;;;5964672;29;20061;-83
2023/10/26 06:57:07;;;;;;;7.63;4.38;;;;;;;;;;5954854;29;20055;-85
2023/10/26 07:00:10;;;;;;;8.98;5.43;;;;;;;;;;5952885;29;20059;-84
2023/10/26 07:03:13;;;;;;;8.32;4.70;;;;;;;;;;5951206;29;20074;-83
2023/10/26 07:06:15;;;;;;;7.93;4.68;;;;;;;;;;5961204;29;20363;-83
2023/10/26 07:09:17;;;;;;;9.23;5.20;;;;;;;;;;5954320;29;20086;-84
2023/10/26 07:12:19;;;;;;;9.85;4.75;;;;;;;;;;5941006;29;20110;-83
2023/10/26 07:15:20;;;;;;;10.15;5.30;;;;;;;;;;5950010;29;20050;-81
2023/10/26 07:18:22;;;;;;;8.93;4.78;;;;;;;;;;5953718;29;20050;-81
2023/10/26 07:21:25;;;;;;;9.23;5.00;;;;;;;;;;5934998;29;20051;-83
2023/10/26 07:24:29;;;;;;;8.52;4.80;;;;;;;;;;5966586;29;20081;-81
2023/10/26 07:27:31;;;;;;;8.00;4.53;;;;;;;;;;5932278;29;20061;-82
2023/10/26 07:30:39;;;;;;;8.70;5.03;;;;;;;;;;5931954;29;20067;-83
2023/10/26 07:33:40;;;;;;;8.70;4.72;;;;;;;;;;5965776;29;20170;-81
2023/10/26 07:36:42;;;;;;;8.70;4.45;;;;;;;;;;5953444;29;20059;-82
2023/10/26 07:39:44;;;;;;;8.30;4.75;;;;;;;;;;5955430;29;20077;-81
2023/10/26 07:42:49;;;;;;;9.65;4.95;;;;;;;;;;5948535;29;20050;-83
2023/10/26 07:45:51;;;;;;;8.98;4.90;;;;;;;;;;5952915;29;20074;-83
2023/10/26 07:48:53;;;;;;;9.00;5.35;;;;;;;;;;5944584;29;20142;-83
2023/10/26 07:51:55;;;;;;;8.00;4.70;;;;;;;;;;5949848;29;20415;-82
2023/10/26 07:54:56;;;;;;;10.63;5.10;;;;;;;;;;5949026;29;20135;-80
2023/10/26 07:57:58;;;;;;;11.32;6.00;;;;;;;;;;5967009;29;20062;-81
2023/10/26 08:01:07;;;;;;;10.90;5.30;;;;;;;;;;5948527;29;20758;-83
2023/10/26 08:04:08;;;;;;;11.20;5.93;;;;;;;;;;5962534;29;20050;-83
2023/10/26 08:07:10;;;;;;;9.65;5.18;;;;;;;;;;5959284;29;20062;-81
2023/10/26 08:10:12;;;;;;;10.82;6.18;;;;;;;;;;5943901;29;20396;-82
2023/10/26 08:13:14;;;;;;;11.43;5.90;;;;;;;;;;5952221;29;20055;-82
2023/10/26 08:16:15;;;;;;;9.77;5.70;;;;;;;;;;5952862;29;20047;-81
2023/10/26 08:19:38;;;;;;;10.07;5.43;;;;;;;;;;5950367;29;20941;-82
2023/10/26 08:22:40;;;;;;;8.90;5.38;;;;;;;;;;5943611;29;20554;-83
2023/10/26 08:25:42;;;;;;;10.02;5.25;;;;;;;;;;5949530;29;20043;-83
2023/10/26 08:28:44;;;;;;;10.70;5.35;;;;;;;;;;5957132;29;20058;-83
2023/10/26 08:31:45;;;;;;;9.68;5.80;;;;;;;;;;5945689;29;20054;-80
2023/10/26 08:34:47;;;;;;;10.13;5.72;;;;;;;;;;5959477;29;20130;-81
2023/10/26 08:37:49;;;;;;;11.35;6.68;;;;;;;;;;5946122;29;20051;-82
2023/10/26 08:40:54;;;;;;;10.50;5.88;;;;;;;;;;5948919;29;20065;-82
2023/10/26 08:43:56;;;;;;;10.40;5.50;;;;;;;;;;5945881;29;20504;-82
2023/10/26 08:47:02;;;;;;;11.15;6.03;;;;;;;;;;5953904;29;20101;-83
2023/10/26 08:50:04;;;;;;;11.18;5.93;;;;;;;;;;5966795;29;20431;-81
2023/10/26 08:53:18;;;;;;;10.35;5.78;;;;;;;;;;5950824;29;20050;-82
2023/10/26 08:56:23;;;;;;;10.07;5.53;;;;;;;;;;5943471;29;20077;-83
2023/10/26 08:59:27;;;;;;;10.77;5.45;;;;;;;;;;5953542;29;20055;-80
2023/10/26 09:02:29;;;;;;;13.40;6.57;;;;;;;;;;5952079;29;20153;-81
2023/10/26 09:05:31;;;;;;;10.70;5.65;;;;;;;;;;5951069;29;20078;-81
2023/10/26 09:08:33;;;;;;;8.38;4.60;;;;;;;;;;5955249;29;20491;-82
2023/10/26 09:11:35;;;;;;;8.85;5.28;;;;;;;;;;5953890;29;20151;-83
2023/10/26 09:14:37;;;;;;;8.85;5.32;;;;;;;;;;5955770;29;20054;-81
2023/10/26 09:17:38;;;;;;;10.50;6.13;;;;;;;;;;5940295;29;20080;-81
2023/10/26 09:20:42;;;;;;;8.95;5.65;;;;;;;;;;5959837;29;20130;-81
2023/10/26 09:23:45;;;;;;;8.82;5.43;;;;;;;;;;5955533;29;20043;-81
2023/10/26 09:26:47;;;;;;;9.07;5.37;;;;;;;;;;5944655;29;20050;-83
2023/10/26 09:29:49;;;;;;;12.32;6.47;;;;;;;;;;5966676;29;20104;-81
2023/10/26 09:32:51;;;;;;;13.80;7.60;;;;;;;;;;5968261;29;20519;-81
2023/10/26 09:35:53;;;;;;;12.05;6.80;;;;;;;;;;5961911;29;21286;-81
2023/10/26 09:38:55;;;;;;;13.07;7.20;;;;;;;;;;5967549;29;20430;-81
2023/10/26 09:41:59;;;;;;;12.73;7.18;;;;;;;;;;5967135;29;20066;-82
2023/10/26 09:45:00;;;;;;;13.88;6.78;;;;;;;;;;5944868;29;20055;-81
2023/10/26 09:48:04;;;;;;;17.60;8.38;;;;;;;;;;5945316;29;20605;-82
2023/10/26 09:51:06;;;;;;;14.25;7.13;;;;;;;;;;5970636;29;20055;-85
2023/10/26 09:54:08;;;;;;;12.25;6.55;;;;;;;;;;5963543;29;20069;-83
2023/10/26 09:57:13;;;;;;;12.45;7.78;;;;;;;;;;5961889;29;20046;-83
2023/10/26 10:00:17;;;;;;;13.82;7.53;;;;;;;;;;5964479;29;20050;-83
2023/10/26 10:03:19;;;;;;;14.77;7.70;;;;;;;;;;5964724;29;20161;-84
2023/10/26 10:06:58;;;;;;;14.20;8.07;;;;;;;;;;5966618;29;20046;-85
2023/10/26 10:10:04;;;;;;;13.05;7.28;;;;;;;;;;5887619;29;20056;-83
2023/10/26 10:13:07;;;;;;;15.65;7.85;;;;;;;;;;5965011;29;20054;-84
2023/10/26 10:16:45;;;;;;;16.70;8.30;;;;;;;;;;5957645;29;20062;-84
2023/10/26 10:20:13;;;;;;;14.90;8.07;;;;;;;;;;5906053;29;20113;-83
2023/10/26 10:23:30;;;;;;;15.38;7.82;;;;;;;;;;5944970;29;20074;-83
2023/10/26 10:27:08;;;;;;;15.40;7.80;;;;;;;;;;5962561;29;20104;-87
2023/10/26 10:30:11;;;;;;;14.75;7.53;;;;;;;;;;5977970;29;20072;-84
2023/10/26 10:33:22;;;;;;;14.65;7.47;;;;;;;;;;5957539;29;20051;-83
2023/10/26 10:36:24;;;;;;;14.32;7.72;;;;;;;;;;5958440;29;20157;-83
2023/10/26 10:39:25;;;;;;;12.52;7.28;;;;;;;;;;5965388;29;20054;-83
2023/10/26 10:42:27;;;;;;;13.13;7.32;;;;;;;;;;5966258;29;20123;-84
2023/10/26 10:45:29;;;;;;;14.80;8.18;;;;;;;;;;5952469;29;20050;-84
2023/10/26 10:48:35;;;;;;;13.13;7.63;;;;;;;;;;5964892;29;20183;-83
2023/10/26 10:51:41;;;;;;;13.75;7.47;;;;;;;;;;5958707;29;20071;-83
2023/10/26 10:54:48;;;;;;;12.73;7.40;;;;;;;;;;5952312;29;20047;-83
2023/10/26 10:58:05;;;;;;;12.10;7.63;;;;;;;;;;5957697;29;20049;-86
2023/10/26 11:01:07;;;;;;;12.57;6.45;;;;;;;;;;5955964;29;20201;-84
2023/10/26 11:04:12;;;;;;;11.88;6.10;;;;;;;;;;5957425;29;20050;-83
2023/10/26 11:07:14;;;;;;;11.35;6.75;;;;;;;;;;5941345;29;20414;-83
2023/10/26 11:10:17;;;;;;;8.15;5.88;;;;;;;;;;5957551;29;20050;-86
2023/10/26 11:13:21;;;;;;;9.90;5.80;;;;;;;;;;5959475;29;20252;-85
2023/10/26 11:16:24;;;;;;;8.10;5.43;;;;;;;;;;5943311;29;20054;-86
2023/10/26 11:19:25;;;;;;;;;;;;;;;;;;5960228;29;20141;-85
2023/10/26 11:22:27;;;;;;;8.65;5.75;;;;;;;;;;5941779;29;19973;-87
2023/10/26 11:25:30;;;;;;;8.10;5.18;;;;;;;;;;5976945;29;20061;-87
2023/10/26 11:28:35;;;;;;;8.15;5.28;;;;;;;;;;5962579;29;20055;-87
2023/10/26 11:31:39;;;;;;;8.40;5.32;;;;;;;;;;5975472;29;20062;-86
2023/10/26 11:35:10;;;;;;;8.05;5.82;;;;;;;;;;5958600;29;20058;-87
2023/10/26 11:38:12;;;;;;;7.30;4.80;;;;;;;;;;5945714;29;20055;-87
2023/10/26 11:41:24;;;;;;;8.05;5.53;;;;;;;;;;5945515;29;20054;-87
2023/10/26 11:44:27;;;;;;;6.22;4.60;;;;;;;;;;5957193;29;20088;-87
2023/10/26 11:47:45;;;;;;;7.75;4.60;;;;;;;;;;5957953;29;20050;-88
2023/10/26 11:50:46;;;;;;;8.32;4.70;;;;;;;;;;5956385;29;20061;-85
2023/10/26 11:53:48;;;;;;;10.20;5.72;;;;;;;;;;5947681;29;20063;-86
2023/10/26 11:56:50;;;;;;;12.85;6.85;;;;;;;;;;5945913;29;20625;-86
2023/10/26 11:59:51;;;;;;;15.77;7.57;;;;;;;;;;5962149;29;20055;-87
2023/10/26 12:02:54;;;;;;;6.55;4.60;;;;;;;;;;5943947;29;20062;-83
2023/10/26 12:05:56;;;;;;;8.43;4.10;;;;;;;;;;5944884;29;20179;-85
2023/10/26 12:08:59;;;;;;;10.43;6.07;;;;;;;;;;5956676;29;20507;-85
2023/10/26 12:12:00;;;;;;;9.25;5.43;;;;;;;;;;5957076;29;20051;-85
2023/10/26 12:15:02;;;;;;;9.20;5.45;;;;;;;;;;5959809;29;20063;-84
2023/10/26 12:18:04;;;;;;;5.30;3.75;;;;;;;;;;5958252;29;20089;-86
2023/10/26 12:21:06;;;;;;;5.20;3.67;;;;;;;;;;5951682;29;20123;-86
2023/10/26 12:24:08;;;;;;;4.75;3.70;;;;;;;;;;5961743;29;20054;-86
2023/10/26 12:27:09;;;;;;;4.68;3.60;;;;;;;;;;5946834;29;20051;-86
2023/10/26 12:30:12;;;;;;;4.90;3.42;;;;;;;;;;5958830;29;20051;-86
2023/10/26 12:33:13;;;;;;;7.05;3.47;;;;;;;;;;5960431;29;20062;-84
2023/10/26 12:36:16;;;;;;;4.85;2.97;;;;;;;;;;5955896;29;20394;-83
2023/10/26 12:39:17;;;;;;;4.35;3.55;;;;;;;;;;5966583;29;20043;-85
2023/10/26 12:42:19;;;;;;;4.22;3.20;;;;;;;;;;5957066;29;20107;-83
2023/10/26 12:45:21;;;;;;;3.85;2.90;;;;;;;;;;5956650;29;20084;-83
2023/10/26 12:48:23;;;;;;;5.80;2.97;;;;;;;;;;5952601;29;20365;-82
2023/10/26 12:51:25;;;;;;;4.63;3.28;;;;;;;;;;5953054;29;20078;-81
2023/10/26 12:54:27;;;;;;;3.83;3.03;;;;;;;;;;5946527;29;20576;-83
2023/10/26 12:57:29;;;;;;;6.37;4.23;;;;;;;;;;5967533;29;20076;-82
2023/10/26 13:00:31;;;;;;;4.30;3.33;;;;;;;;;;5967874;29;20449;-81
2023/10/26 13:03:33;;;;;;;8.07;5.60;;;;;;;;;;5955654;29;20046;-82
2023/10/26 13:06:35;;;;;;;7.63;3.67;;;;;;;;;;5951847;29;20062;-80
2023/10/26 13:09:40;;;;;;;2.88;2.50;;;;;;;;;;5955139;29;20144;-81
2023/10/26 13:12:43;;;;;;;5.32;3.83;;;;;;;;;;5966123;29;20050;-82
2023/10/26 13:15:45;;;;;;;6.30;5.70;;;;;;;;;;5952942;29;20059;-83
2023/10/26 13:18:47;;;;;;;5.57;5.05;;;;;;;;;;5952595;29;20965;-84
2023/10/26 13:21:51;;;;;;;4.10;3.13;;;;;;;;;;5929674;29;20054;-86
2023/10/26 13:24:53;;;;;;;4.47;3.35;;;;;;;;;;5953423;29;20075;-85
2023/10/26 13:27:55;;;;;;;6.60;3.00;;;;;;;;;;5951824;29;20059;-85
2023/10/26 13:30:56;;;;;;;4.28;2.72;;;;;;;;;;5966701;29;20058;-85
2023/10/26 13:33:58;;;;;;;5.97;3.00;;;;;;;;;;5958247;29;20705;-83
2023/10/26 13:37:00;;;;;;;4.13;2.72;;;;;;;;;;5947574;29;20137;-83
2023/10/26 13:40:05;;;;;;;10.10;8.75;;;;;;;;;;5954186;29;20051;-83
2023/10/26 13:43:08;;;;;;;3.25;2.90;;;;;;;;;;5955722;29;20146;-83
2023/10/26 13:46:10;;;;;;;3.97;2.60;;;;;;;;;;5943378;29;20047;-84
2023/10/26 13:49:13;;;;;;;5.47;4.32;;;;;;;;;;5958992;29;20062;-84
2023/10/26 13:52:15;;;;;;;7.50;3.50;;;;;;;;;;5936581;29;20192;-83
2023/10/26 13:55:17;;;;;;;3.80;2.83;;;;;;;;;;5940075;29;20215;-84
2023/10/26 13:58:19;;;;;;;6.25;3.30;;;;;;;;;;5941188;29;20051;-84
2023/10/26 14:01:20;;;;;;;6.05;4.85;;;;;;;;;;5967501;29;20147;-84
2023/10/26 14:04:22;;;;;;;4.05;2.72;;;;;;;;;;5941861;29;20597;-83
2023/10/26 14:07:25;;;;;;;10.85;3.17;;;;;;;;;;5943399;29;20111;-83
2023/10/26 14:10:27;;;;;;;4.82;3.20;;;;;;;;;;5972287;29;20065;-82
2023/10/26 14:13:28;;;;;;;6.38;4.30;;;;;;;;;;5955211;29;20107;-84
2023/10/26 14:16:30;;;;;;;6.28;4.53;;;;;;;;;;5956846;29;20172;-83
2023/10/26 14:19:32;;;;;;;3.63;3.17;;;;;;;;;;5970428;29;21055;-83
2023/10/26 14:22:34;;;;;;;5.15;3.72;;;;;;;;;;5952899;29;20062;-82
2023/10/26 14:25:36;;;;;;;3.90;2.78;;;;;;;;;;5950607;29;20062;-81
2023/10/26 14:28:38;;;;;;;12.95;8.50;;;;;;;;;;5952480;29;20161;-81
2023/10/26 14:31:39;;;;;;;5.72;4.07;;;;;;;;;;5955283;29;20147;-82
2023/10/26 14:34:43;;;;;;;4.50;2.97;;;;;;;;;;5939820;29;20051;-82
2023/10/26 14:37:50;;;;;;;4.30;2.90;;;;;;;;;;5954082;29;20127;-82
2023/10/26 14:40:58;;;;;;;4.13;3.72;;;;;;;;;;5960760;29;20050;-82
2023/10/26 14:44:00;;;;;;;5.35;4.85;;;;;;;;;;5949416;29;20055;-82
2023/10/26 14:47:02;;;;;;;3.90;3.20;;;;;;;;;;5950646;29;20046;-81
2023/10/26 14:50:04;;;;;;;3.63;2.90;;;;;;;;;;5947715;29;20223;-82
2023/10/26 14:53:06;;;;;;;4.80;3.20;;;;;;;;;;5951736;29;20660;-82
2023/10/26 14:56:07;;;;;;;3.45;3.15;;;;;;;;;;5962701;29;20057;-82
2023/10/26 14:59:09;;;;;;;4.30;3.75;;;;;;;;;;5949747;29;20081;-82
2023/10/26 15:02:11;;;;;;;6.07;3.72;;;;;;;;;;5955485;29;20054;-82
2023/10/26 15:05:12;;;;;;;5.72;3.53;;;;;;;;;;5963259;29;20058;-81
2023/10/26 15:08:14;;;;;;;2.65;2.40;;;;;;;;;;5951789;29;20590;-79
2023/10/26 15:11:16;;;;;;;3.72;2.90;;;;;;;;;;5949532;29;20111;-80
2023/10/26 15:14:25;;;;;;;5.80;3.05;;;;;;;;;;5945939;29;20096;-84
2023/10/26 15:17:27;;;;;;;6.32;4.95;;;;;;;;;;5960827;29;20074;-84
2023/10/26 15:20:29;;;;;;;4.88;4.05;;;;;;;;;;5936694;29;20076;-84
2023/10/26 15:23:30;;;;;;;5.63;4.63;;;;;;;;;;5945325;29;20047;-84
2023/10/26 15:26:32;;;;;;;4.80;4.15;;;;;;;;;;5937826;29;20038;-85
2023/10/26 15:29:34;;;;;;;4.75;3.53;;;;;;;;;;5939664;29;20086;-83
2023/10/26 15:32:36;;;;;;;8.38;7.43;;;;;;;;;;5966502;29;20051;-83
2023/10/26 15:35:37;;;;;;;11.65;9.38;;;;;;;;;;5950891;29;20059;-83
2023/10/26 15:38:41;;;;;;;6.93;4.18;;;;;;;;;;5943062;29;20516;-84
2023/10/26 15:41:44;;;;;;;5.60;3.75;;;;;;;;;;5931758;29;20071;-82
2023/10/26 15:44:51;;;;;;;;;;;;;;;;;;5962450;29;20527;-82
2023/10/26 15:47:53;;;;;;;5.53;3.38;;;;;;;;;;5943859;29;19977;-82
2023/10/26 15:51:08;;;;;;;5.70;3.95;;;;;;;;;;5953623;29;20887;-83
2023/10/26 15:54:11;;;;;;;5.55;3.70;;;;;;;;;;5950036;29;20059;-83
2023/10/26 15:57:14;;;;;;;6.32;3.80;;;;;;;;;;5953282;29;20055;-83
2023/10/26 16:00:16;;;;;;;18.27;10.57;;;;;;;;;;5945606;24;20074;-88
2023/10/26 16:03:40;;;;;;;9.40;4.85;;;;;;;;;;5915844;29;20054;-87
2023/10/26 16:06:42;;;;;;;3.80;3.10;;;;;;;;;;5856793;29;20079;-88
2023/10/26 16:09:47;;;;;;;4.97;2.77;;;;;;;;;;5911911;29;20403;-87
2023/10/26 16:13:38;;;;;;;24.92;13.48;;;;;;;;;;5894236;29;20059;-87
2023/10/26 16:17:04;;;;;;;;;;;;;;;;;;;;;
2023/10/26 16:20:16;;;;;;;5.22;3.88;;;;;;;;;;5936506;29;20406;-87
2023/10/26 16:23:18;;;;;;;8.05;6.30;;;;;;;;;;5876904;29;20173;-87
2023/10/26 16:26:21;;;;;;;12.25;7.70;;;;;;;;;;5887868;29;20519;-88
2023/10/26 16:29:40;;;;;;;29.90;15.73;;;;;;;;;;5879286;29;20048;-87
2023/10/26 16:33:09;;;;;;;7.63;5.20;;;;;;;;;;5909237;29;20066;-88
2023/10/26 16:36:44;;;;;;;8.50;5.88;;;;;;;;;;5904981;29;20232;-88
2023/10/26 16:39:46;;;;;;;18.35;14.00;;;;;;;;;;5901967;29;20051;-90
2023/10/26 16:42:50;;;;;;;15.50;10.32;;;;;;;;;;5934638;29;20047;-88
2023/10/26 16:45:51;;;;;;;7.28;5.13;;;;;;;;;;5915278;29;20154;-89
2023/10/26 16:48:53;;;;;;;52.60;21.58;;;;;;;;;;5933432;29;20056;-87
2023/10/26 16:51:55;;;;;;;7.35;4.65;;;;;;;;;;5929228;29;20054;-87
2023/10/26 16:55:01;;;;;;;6.32;4.30;;;;;;;;;;5934693;29;20239;-88
2023/10/26 16:58:03;;;;;;;5.75;4.32;;;;;;;;;;5914671;29;20403;-88
2023/10/26 17:01:09;;;;;;;5.82;4.00;;;;;;;;;;5933725;29;20047;-89
2023/10/26 17:04:11;;;;;;;79.80;30.17;;;;;;;;;;5925314;29;20537;-88
2023/10/26 17:07:13;;;;;;;62.53;23.67;;;;;;;;;;5930931;29;20058;-88
2023/10/26 17:10:14;;;;;;;91.53;36.33;;;;;;;;;;5930861;29;20051;-87
2023/10/26 17:13:16;;;;;;;17.65;8.73;;;;;;;;;;5924262;29;20046;-88
2023/10/26 17:16:18;;;;;;;25.33;11.52;;;;;;;;;;5947946;29;20055;-88
2023/10/26 17:19:20;;;;;;;4.90;3.67;;;;;;;;;;5950759;29;20051;-89
2023/10/26 17:22:23;;;;;;;8.88;3.58;;;;;;;;;;5938496;29;20050;-88
2023/10/26 17:25:24;;;;;;;9.77;5.00;;;;;;;;;;5951356;29;20133;-88
2023/10/26 17:28:26;;;;;;;16.13;8.18;;;;;;;;;;5950936;29;20086;-88
2023/10/26 17:31:28;;;;;;;6.97;4.80;;;;;;;;;;5937802;29;20073;-89
2023/10/26 17:34:30;;;;;;;13.93;7.03;;;;;;;;;;5921414;29;20141;-89
2023/10/26 17:37:32;;;;;;;134.50;62.08;;;;;;;;;;5929215;29;20092;-88
2023/10/26 17:40:33;;;;;;;39.67;21.83;;;;;;;;;;5932728;29;20047;-89
2023/10/26 17:43:36;;;;;;;78.57;39.92;;;;;;;;;;5933230;29;20054;-89
2023/10/26 17:46:37;;;;;;;28.37;15.27;;;;;;;;;;5947959;29;20055;-89
2023/10/26 17:49:39;;;;;;;12.00;5.97;;;;;;;;;;5931477;29;20063;-89
2023/10/26 17:52:41;;;;;;;10.38;4.93;;;;;;;;;;5941434;29;20137;-89
2023/10/26 17:56:03;;;;;;;21.65;10.38;;;;;;;;;;5953872;29;20552;-90
2023/10/26 17:59:05;;;;;;;94.00;39.57;;;;;;;;;;5934036;29;20447;-90
2023/10/26 18:02:07;;;;;;;17.17;7.97;;;;;;;;;;5922253;29;20082;-90
2023/10/26 18:05:09;;;;;;;8.32;5.50;;;;;;;;;;5922499;29;20047;-90
2023/10/26 18:08:11;;;;;;;13.65;6.35;;;;;;;;;;5925564;29;20109;-90
2023/10/26 18:11:13;;;;;;;8.27;4.93;;;;;;;;;;5916821;29;20125;-91
2023/10/26 18:14:15;;;;;;;13.48;7.43;;;;;;;;;;5908609;29;20586;-90
2023/10/26 18:17:16;;;;;;;42.63;16.75;;;;;;;;;;5958106;29;20051;-90